Time;durP1;ratioP1;P1;durP2;ratioP2;P2;SDS_P1;SDS_P2;PMS_P1;PMS_P2;Temp;Humidity;BMP_temperature;BMP_pressure;BME280_temperature;BME280_humidity;BME280_pressure;Samples;Min_cycle;Max_cycle;Signal;HPM_P1;HPM_P2
2023/07/26 00:03:42;;;;;;;4.63;2.47;;;;;;;16.74;81.26;99069.75;10529696;28;20044;-72
2023/07/26 00:08:45;;;;;;;6.25;3.10;;;;;;;16.73;81.65;99070.13;10529129;28;20044;-72
2023/07/26 00:13:48;;;;;;;3.78;2.80;;;;;;;16.66;82.83;99061.59;10507384;28;20048;-72
2023/07/26 00:18:51;;;;;;;4.75;3.20;;;;;;;16.70;82.39;99049.47;10524268;28;20043;-72
2023/07/26 00:23:53;;;;;;;4.15;2.63;;;;;;;16.65;82.78;99049.72;10522854;28;20414;-72
2023/07/26 00:28:56;;;;;;;3.38;2.30;;;;;;;16.63;83.10;99051.25;10526404;28;20541;-72
2023/07/26 00:33:58;;;;;;;4.93;2.80;;;;;;;16.48;84.25;99050.09;10496070;28;20060;-72
2023/07/26 00:39:03;;;;;;;3.25;2.50;;;;;;;16.45;84.57;99046.09;10523803;28;20056;-72
2023/07/26 00:44:05;;;;;;;2.55;2.08;;;;;;;16.40;84.65;99045.56;10524482;28;20037;-72
2023/07/26 00:49:07;;;;;;;3.30;2.40;;;;;;;16.36;85.51;99039.16;10517256;28;20048;-72
2023/07/26 00:54:10;;;;;;;5.35;2.83;;;;;;;16.47;85.05;99042.94;10524018;28;20068;-72
2023/07/26 00:59:13;;;;;;;3.15;2.38;;;;;;;16.42;85.45;99037.69;10527871;28;20051;-72
2023/07/26 01:04:16;;;;;;;4.60;2.63;;;;;;;16.44;85.47;99033.41;10494133;28;20556;-72
2023/07/26 01:09:30;;;;;;;4.15;2.60;;;;;;;16.50;85.70;99048.59;10507075;28;20053;-72
2023/07/26 01:14:50;;;;;;;2.97;2.13;;;;;;;16.43;86.87;99053.16;10506740;28;20514;-72
2023/07/26 01:19:53;;;;;;;3.83;2.47;;;;;;;16.38;87.42;99053.44;10522008;28;20483;-72
2023/07/26 01:24:56;;;;;;;6.13;3.00;;;;;;;16.43;87.69;99067.00;10523185;28;20502;-72
2023/07/26 01:30:01;;;;;;;2.97;2.22;;;;;;;16.35;87.72;99057.72;10507157;28;20059;-72
2023/07/26 01:35:04;;;;;;;4.55;2.50;;;;;;;16.32;88.16;99071.47;10519892;28;20086;-72
2023/07/26 01:40:07;;;;;;;3.08;2.25;;;;;;;16.31;87.88;99062.34;10507054;28;20047;-73
2023/07/26 01:45:10;;;;;;;4.70;2.72;;;;;;;16.25;88.42;99050.75;10489188;28;20041;-72
2023/07/26 01:50:12;;;;;;;3.20;2.70;;;;;;;16.25;88.16;99058.25;10522671;28;20067;-72
2023/07/26 01:55:14;;;;;;;4.32;2.75;;;;;;;16.25;88.44;99050.75;10523648;28;20055;-73
2023/07/26 02:00:16;;;;;;;5.50;3.65;;;;;;;16.18;89.51;99050.59;10524127;28;20032;-72
2023/07/26 02:05:19;;;;;;;5.88;3.88;;;;;;;16.05;90.28;99059.31;10525038;28;20041;-73
2023/07/26 02:10:22;;;;;;;6.63;4.00;;;;;;;15.99;91.70;99050.50;10487701;28;20411;-73
2023/07/26 02:15:24;;;;;;;6.43;3.58;;;;;;;15.84;93.03;99049.31;10503276;28;20127;-72
2023/07/26 02:20:27;;;;;;;6.88;4.30;;;;;;;15.90;93.28;99056.16;10489964;28;20045;-72
2023/07/26 02:25:30;;;;;;;6.82;3.65;;;;;;;15.85;93.52;99044.56;10524283;28;20044;-72
2023/07/26 02:30:36;;;;;;;8.45;4.82;;;;;;;15.85;93.94;99055.63;10503870;28;20044;-72
2023/07/26 02:35:38;;;;;;;7.63;4.47;;;;;;;15.80;94.28;99056.72;10505378;28;20163;-74
2023/07/26 02:40:40;;;;;;;7.80;4.63;;;;;;;15.72;95.65;99073.44;10525045;28;20047;-73
2023/07/26 02:45:42;;;;;;;8.18;4.85;;;;;;;15.75;96.22;99078.28;10524805;28;20517;-73
2023/07/26 02:50:45;;;;;;;5.43;3.92;;;;;;;15.67;96.73;99077.28;10505612;28;20524;-73
2023/07/26 02:55:47;;;;;;;7.50;5.00;;;;;;;15.58;97.75;99079.34;10502738;28;20055;-73
2023/07/26 03:00:52;;;;;;;7.18;4.38;;;;;;;15.51;99.22;99070.88;10520779;28;20036;-74
2023/07/26 03:05:57;;;;;;;9.35;4.72;;;;;;;15.47;99.96;99064.44;10502214;28;20033;-74
2023/07/26 03:10:59;;;;;;;6.25;4.00;;;;;;;15.57;100.00;99063.94;10528804;28;20059;-73
2023/07/26 03:16:01;;;;;;;13.68;5.28;;;;;;;15.53;100.00;99060.25;10504299;28;20040;-73
2023/07/26 03:21:04;;;;;;;10.48;5.43;;;;;;;15.53;100.00;99071.31;10507875;28;20059;-73
2023/07/26 03:26:06;;;;;;;11.10;5.32;;;;;;;15.49;100.00;99064.91;10528524;28;20037;-73
2023/07/26 03:31:08;;;;;;;8.82;5.20;;;;;;;15.55;100.00;99061.50;10507712;28;20049;-72
2023/07/26 03:36:10;;;;;;;9.25;5.05;;;;;;;15.64;100.00;99062.22;10527679;28;20078;-72
2023/07/26 03:41:12;;;;;;;8.70;5.53;;;;;;;15.68;100.00;99065.06;10508756;28;20506;-73
2023/07/26 03:46:15;;;;;;;8.88;5.28;;;;;;;15.74;100.00;99049.00;10523328;28;20035;-73
2023/07/26 03:51:17;;;;;;;8.82;5.20;;;;;;;15.74;100.00;99038.75;10518637;28;20045;-73
2023/07/26 03:56:19;;;;;;;10.48;5.43;;;;;;;15.75;100.00;99040.34;10519222;28;20055;-74
2023/07/26 04:01:21;;;;;;;11.00;5.43;;;;;;;15.69;100.00;99041.78;10511859;28;20071;-73
2023/07/26 04:06:24;;;;;;;13.15;7.60;;;;;;;15.71;100.00;99052.50;10525305;28;20514;-73
2023/07/26 04:11:26;;;;;;;11.38;5.72;;;;;;;15.77;100.00;99043.56;10523381;28;20052;-73
2023/07/26 04:16:28;;;;;;;9.00;4.70;;;;;;;15.88;100.00;99036.38;10520340;28;20070;-74
2023/07/26 04:21:30;;;;;;;11.25;5.75;;;;;;;15.88;100.00;99030.84;10477478;28;20052;-73
2023/07/26 04:26:33;;;;;;;8.88;5.25;;;;;;;15.89;100.00;99034.41;10505744;28;20048;-74
2023/07/26 04:31:35;;;;;;;9.70;4.90;;;;;;;15.78;100.00;99045.19;10524107;28;20044;-74
2023/07/26 04:36:37;;;;;;;10.82;5.78;;;;;;;15.77;100.00;99038.03;10523082;28;20041;-74
2023/07/26 04:41:39;;;;;;;10.05;5.38;;;;;;;15.77;100.00;99048.28;10527102;28;20051;-73
2023/07/26 04:46:41;;;;;;;12.68;6.20;;;;;;;15.85;100.00;99045.38;10526342;28;20045;-74
2023/07/26 04:51:43;;;;;;;15.65;6.82;;;;;;;15.91;100.00;99046.72;10524918;28;20056;-73
2023/07/26 04:56:46;;;;;;;17.70;8.38;;;;;;;15.91;100.00;99055.00;10512546;28;20053;-71
2023/07/26 05:01:48;;;;;;;13.68;6.88;;;;;;;15.97;100.00;99059.16;10516277;28;20036;-73
2023/07/26 05:06:50;;;;;;;14.32;7.10;;;;;;;16.09;100.00;99074.03;10524546;28;20525;-73
2023/07/26 05:11:52;;;;;;;18.13;8.52;;;;;;;16.15;99.54;99076.22;10509231;28;20036;-73
2023/07/26 05:16:54;;;;;;;16.38;8.43;;;;;;;16.45;98.29;99084.03;10521057;28;20040;-73
2023/07/26 05:21:56;;;;;;;14.13;8.27;;;;;;;16.57;96.22;99084.75;10520436;28;20041;-73
2023/07/26 05:26:59;;;;;;;15.77;8.50;;;;;;;16.61;95.13;99098.69;10512631;28;20048;-73
2023/07/26 05:32:01;;;;;;;13.95;7.00;;;;;;;16.68;94.53;99095.31;10521951;28;20062;-74
2023/07/26 05:37:04;;;;;;;13.00;7.22;;;;;;;16.78;94.32;99092.78;10522792;28;20059;-72
2023/07/26 05:42:06;;;;;;;16.10;8.32;;;;;;;16.78;93.74;99103.06;10526219;28;20079;-72
2023/07/26 05:47:09;;;;;;;13.18;7.10;;;;;;;17.01;93.29;99097.66;10519071;28;20049;-72
2023/07/26 05:52:12;;;;;;;21.00;9.30;;;;;;;17.35;91.00;99096.81;10479198;28;20049;-73
2023/07/26 05:57:14;;;;;;;16.13;7.60;;;;;;;17.30;90.52;99096.31;10513937;28;20463;-74
2023/07/26 06:02:16;;;;;;;15.85;7.00;;;;;;;17.95;87.15;99082.59;10484952;28;20051;-72
2023/07/26 06:07:18;;;;;;;13.90;7.63;;;;;;;18.54;83.47;99090.34;10485269;28;20487;-74
2023/07/26 06:12:20;;;;;;;15.90;8.45;;;;;;;18.85;82.34;99083.75;10484201;28;20049;-74
2023/07/26 06:17:22;;;;;;;11.27;5.95;;;;;;;18.79;80.95;99082.47;10465969;28;20388;-74
2023/07/26 06:22:24;;;;;;;10.10;5.63;;;;;;;18.00;84.24;99085.88;10483537;28;20041;-74
2023/07/26 06:27:30;;;;;;;9.15;5.05;;;;;;;17.66;84.92;99079.25;10465407;28;20526;-74
2023/07/26 06:32:32;;;;;;;9.38;5.18;;;;;;;17.42;86.50;99072.03;10483869;28;20426;-74
2023/07/26 06:37:35;;;;;;;9.13;5.60;;;;;;;17.55;85.96;99061.59;10486143;28;20052;-74
2023/07/26 06:42:37;;;;;;;10.73;5.85;;;;;;;17.59;85.51;99068.00;10457692;28;20049;-75
2023/07/26 06:47:39;;;;;;;9.73;5.68;;;;;;;17.67;85.21;99068.94;10473975;28;20052;-74
2023/07/26 06:52:41;;;;;;;10.40;5.38;;;;;;;17.76;83.94;99070.34;10491402;28;20056;-74
2023/07/26 06:57:43;;;;;;;8.88;4.75;;;;;;;17.95;83.23;99066.75;10491385;28;20036;-75
2023/07/26 07:02:46;;;;;;;10.35;4.90;;;;;;;17.95;82.59;99065.94;10505456;28;20059;-74
2023/07/26 07:07:48;;;;;;;8.07;4.85;;;;;;;17.83;83.23;99061.34;10514889;28;20043;-74
2023/07/26 07:12:50;;;;;;;9.43;5.60;;;;;;;18.14;82.29;99065.88;10532315;28;20046;-74
2023/07/26 07:17:52;;;;;;;10.73;6.20;;;;;;;18.18;81.79;99069.53;10533187;28;20447;-75
2023/07/26 07:22:54;;;;;;;10.80;5.88;;;;;;;18.16;82.86;99074.66;10532752;28;20048;-74
2023/07/26 07:27:56;;;;;;;12.38;6.47;;;;;;;18.06;83.07;99081.63;10532592;28;20048;-75
2023/07/26 07:32:58;;;;;;;9.57;5.75;;;;;;;18.05;82.80;99082.00;10531554;28;20048;-74
2023/07/26 07:38:01;;;;;;;11.35;6.35;;;;;;;18.18;82.46;99091.72;10513501;28;20047;-74
2023/07/26 07:43:03;;;;;;;11.70;6.00;;;;;;;18.13;81.98;99103.16;10531215;28;20053;-74
2023/07/26 07:48:05;;;;;;;9.10;5.68;;;;;;;17.94;82.75;99109.53;10530493;28;20037;-74
2023/07/26 07:53:07;;;;;;;10.95;5.85;;;;;;;17.73;83.75;99106.38;10530443;28;20051;-74
2023/07/26 07:58:10;;;;;;;11.10;4.53;;;;;;;17.64;84.43;99122.38;10530619;28;20044;-74
2023/07/26 08:03:12;;;;;;;7.78;5.03;;;;;;;17.54;84.83;99122.97;10533647;28;20053;-74
2023/07/26 08:08:14;;;;;;;10.48;5.90;;;;;;;17.58;85.90;99121.88;10512435;28;20067;-74
2023/07/26 08:13:16;;;;;;;10.23;6.10;;;;;;;17.55;87.09;99121.81;10512787;28;20040;-74
2023/07/26 08:18:19;;;;;;;9.43;5.47;;;;;;;17.44;87.95;99124.34;10529742;28;20044;-74
2023/07/26 08:23:21;;;;;;;11.23;6.05;;;;;;;17.47;88.13;99137.47;10511857;28;20036;-74
2023/07/26 08:28:23;;;;;;;10.88;6.38;;;;;;;17.51;87.31;99140.31;10529504;28;20426;-74
2023/07/26 08:33:25;;;;;;;13.98;6.20;;;;;;;17.87;85.91;99134.38;10529521;28;20506;-74
2023/07/26 08:38:27;;;;;;;11.55;5.70;;;;;;;18.27;84.15;99128.41;10529064;28;20521;-74
2023/07/26 08:43:31;;;;;;;8.85;5.53;;;;;;;18.62;82.42;99132.97;10528913;28;20535;-74
2023/07/26 08:48:34;;;;;;;10.45;5.97;;;;;;;18.74;80.53;99124.44;10528485;28;20040;-74
2023/07/26 08:53:36;;;;;;;8.90;5.38;;;;;;;18.68;80.30;99115.63;10510436;28;20044;-74
2023/07/26 08:58:39;;;;;;;10.02;5.93;;;;;;;18.95;79.36;99124.81;10528001;28;20406;-74
2023/07/26 09:03:41;;;;;;;8.95;5.20;;;;;;;19.14;77.20;99139.78;10529257;28;20052;-74
2023/07/26 09:08:43;;;;;;;10.32;6.30;;;;;;;19.39;77.83;99142.88;10526991;28;20063;-74
2023/07/26 09:13:52;;;;;;;10.85;6.00;;;;;;;19.75;77.98;99138.63;10527530;28;20049;-74
2023/07/26 09:19:02;;;;;;;10.85;5.40;;;;;;;19.87;76.39;99153.09;10527444;28;20059;-74
2023/07/26 09:24:04;;;;;;;10.88;5.43;;;;;;;20.01;74.32;99144.09;10527238;28;20052;-74
2023/07/26 09:29:11;;;;;;;9.50;5.40;;;;;;;20.46;72.81;99136.63;10508940;28;20048;-74
2023/07/26 09:34:14;;;;;;;;;;;;;;;20.45;72.55;99144.19;10527491;28;20036;-74
2023/07/26 09:39:21;;;;;;;11.13;5.63;;;;;;;20.67;71.88;99134.03;10526433;28;19920;-75
2023/07/26 09:44:23;;;;;;;8.02;5.18;;;;;;;20.82;71.31;99134.13;10526355;28;20124;-74
2023/07/26 09:49:32;;;;;;;7.90;4.63;;;;;;;20.84;70.56;99126.22;10527304;28;20044;-74
2023/07/26 09:54:34;;;;;;;8.32;4.70;;;;;;;21.17;69.34;99130.78;10508432;28;20049;-74
2023/07/26 09:59:36;;;;;;;10.07;4.93;;;;;;;21.12;69.88;99131.97;10526218;28;20550;-74
2023/07/26 10:04:50;;;;;;;7.85;4.43;;;;;;;20.62;69.26;99133.56;10527994;28;20044;-74
2023/07/26 10:09:53;;;;;;;7.22;4.60;;;;;;;20.83;68.87;99133.78;10480719;28;20044;-74
2023/07/26 10:14:56;;;;;;;6.68;4.45;;;;;;;20.81;70.10;99132.53;10525835;28;20534;-74
2023/07/26 10:19:59;;;;;;;8.98;4.70;;;;;;;20.91;68.40;99131.81;10525569;28;20063;-75
2023/07/26 10:25:01;;;;;;;7.15;4.63;;;;;;;20.90;67.50;99130.22;10525292;28;20052;-74
2023/07/26 10:30:05;;;;;;;9.27;4.90;;;;;;;20.95;66.93;99132.66;10507540;28;20048;-74
2023/07/26 10:35:09;;;;;;;6.22;4.30;;;;;;;20.67;67.72;99147.19;10490987;28;20823;-74
2023/07/26 10:40:33;;;;;;;7.53;4.70;;;;;;;20.66;68.44;99148.38;10525337;28;20059;-74
2023/07/26 10:45:42;;;;;;;8.35;4.68;;;;;;;20.69;68.79;99150.38;10525366;28;20041;-74
2023/07/26 10:50:44;;;;;;;9.38;5.43;;;;;;;20.71;69.68;99143.22;10524848;28;20052;-74
2023/07/26 10:55:50;;;;;;;12.13;6.13;;;;;;;20.57;70.74;99153.44;10524844;28;20422;-74
2023/07/26 11:01:00;;;;;;;12.75;6.43;;;;;;;20.53;70.76;99164.56;10509114;28;20506;-74
2023/07/26 11:06:02;;;;;;;10.05;6.28;;;;;;;20.70;70.32;99161.16;10483561;28;20041;-74
2023/07/26 11:11:06;;;;;;;9.35;5.25;;;;;;;20.96;67.39;99156.56;10482516;28;20048;-74
2023/07/26 11:16:08;;;;;;;9.00;5.28;;;;;;;21.12;66.75;99154.28;10482624;28;20550;-74
2023/07/26 11:21:14;;;;;;;9.23;4.82;;;;;;;20.95;67.37;99161.34;10483633;28;20426;-74
2023/07/26 11:26:17;;;;;;;10.27;4.53;;;;;;;20.95;66.32;99164.13;10470106;28;20056;-74
2023/07/26 11:31:19;;;;;;;10.15;4.90;;;;;;;20.93;66.29;99162.91;10472325;28;20415;-74
2023/07/26 11:36:21;;;;;;;6.30;4.55;;;;;;;20.81;66.51;99166.00;10490038;28;20056;-74
2023/07/26 11:41:23;;;;;;;7.35;4.55;;;;;;;20.89;66.74;99167.66;10489705;28;20053;-74
2023/07/26 11:46:27;;;;;;;7.68;4.18;;;;;;;20.75;65.48;99169.16;10472093;28;20045;-74
2023/07/26 11:51:31;;;;;;;5.65;3.55;;;;;;;20.85;64.92;99167.66;10472263;28;20388;-73
2023/07/26 11:56:34;;;;;;;5.53;3.78;;;;;;;20.97;65.37;99158.16;10471418;28;20053;-73
2023/07/26 12:01:37;;;;;;;3.65;3.13;;;;;;;21.15;64.17;99166.66;10489004;28;20052;-73
2023/07/26 12:06:41;;;;;;;4.28;2.60;;;;;;;21.31;62.85;99156.84;10471006;28;20036;-74
2023/07/26 12:11:51;;;;;;;3.60;2.40;;;;;;;21.33;61.92;99151.66;10488514;28;20048;-74
2023/07/26 12:16:53;;;;;;;4.18;2.80;;;;;;;21.56;61.97;99156.19;10471173;28;20055;-74
2023/07/26 12:21:55;;;;;;;5.90;2.50;;;;;;;21.57;61.03;99155.00;10470783;28;20055;-74
2023/07/26 12:26:59;;;;;;;4.72;2.75;;;;;;;21.56;61.72;99156.19;10470736;28;20056;-74
2023/07/26 12:32:05;;;;;;;10.40;3.22;;;;;;;21.49;62.47;99153.34;10470529;28;20040;-74
2023/07/26 12:37:07;;;;;;;4.97;2.85;;;;;;;21.30;63.04;99166.38;10487305;28;20415;-74
2023/07/26 12:42:09;;;;;;;3.92;2.72;;;;;;;21.10;63.81;99164.22;10488374;28;20040;-74
2023/07/26 12:47:11;;;;;;;3.80;2.50;;;;;;;21.01;63.96;99161.78;10487654;28;20499;-74
2023/07/26 12:52:13;;;;;;;3.15;2.30;;;;;;;20.93;65.38;99151.75;10486677;28;20041;-74
2023/07/26 12:57:16;;;;;;;4.82;2.75;;;;;;;20.82;66.12;99167.59;10469448;28;20049;-74
2023/07/26 13:02:18;;;;;;;4.55;2.45;;;;;;;20.91;65.34;99159.72;10481619;28;20053;-74
2023/07/26 13:07:20;;;;;;;2.85;2.00;;;;;;;20.85;65.68;99167.66;10513195;28;20044;-74
2023/07/26 13:12:22;;;;;;;2.60;2.10;;;;;;;20.96;66.16;99162.13;10551507;28;20040;-74
2023/07/26 13:17:24;;;;;;;3.17;2.30;;;;;;;20.68;66.48;99174.66;10550862;28;20063;-74
2023/07/26 13:22:26;;;;;;;2.88;2.00;;;;;;;20.72;65.68;99178.28;10569561;28;20044;-75
2023/07/26 13:27:29;;;;;;;3.70;1.80;;;;;;;20.52;66.56;99187.25;10569226;28;20047;-72
2023/07/26 13:32:31;;;;;;;6.28;1.77;;;;;;;20.50;66.29;99192.41;10569930;28;20048;-74
2023/07/26 13:37:34;;;;;;;2.72;1.75;;;;;;;20.75;65.74;99190.66;10569179;28;20499;-74
2023/07/26 13:42:36;;;;;;;1.70;1.60;;;;;;;20.81;66.38;99191.09;10568329;28;20050;-73
2023/07/26 13:47:39;;;;;;;2.70;1.83;;;;;;;21.11;64.38;99186.16;10568024;28;20051;-72
2023/07/26 13:52:41;;;;;;;4.68;1.90;;;;;;;21.36;63.23;99187.19;10568282;28;20459;-74
2023/07/26 13:57:43;;;;;;;2.63;1.60;;;;;;;21.58;63.31;99195.69;10567630;28;20145;-74
2023/07/26 14:02:46;;;;;;;2.28;1.80;;;;;;;21.59;61.88;99189.69;10568241;28;20060;-74
2023/07/26 14:07:48;;;;;;;2.13;1.73;;;;;;;21.58;63.10;99195.69;10568200;28;20040;-74
2023/07/26 14:12:50;;;;;;;3.28;1.50;;;;;;;21.42;63.64;99195.19;10567660;28;20044;-74
2023/07/26 14:17:52;;;;;;;2.95;1.88;;;;;;;21.42;63.40;99203.53;10567893;28;20044;-74
2023/07/26 14:22:54;;;;;;;2.13;1.83;;;;;;;21.29;64.15;99203.84;10567764;28;20040;-74
2023/07/26 14:27:57;;;;;;;2.95;2.20;;;;;;;21.28;64.01;99201.47;10549990;28;20051;-74
2023/07/26 14:33:00;;;;;;;3.05;2.30;;;;;;;21.30;64.50;99205.47;10549909;28;20051;-74
2023/07/26 14:38:02;;;;;;;3.17;1.77;;;;;;;21.32;64.35;99214.22;10567547;28;20050;-74
2023/07/26 14:43:04;;;;;;;3.05;1.85;;;;;;;21.16;63.96;99213.69;10564323;28;20043;-74
2023/07/26 14:48:06;;;;;;;1.85;1.70;;;;;;;21.06;64.06;99223.59;10525351;28;20048;-74
2023/07/26 14:53:09;;;;;;;2.28;1.48;;;;;;;20.89;65.10;99226.22;10525386;28;20426;-74
2023/07/26 14:58:11;;;;;;;2.72;1.58;;;;;;;20.84;64.87;99226.59;10508989;28;20056;-74
2023/07/26 15:03:13;;;;;;;1.52;1.40;;;;;;;20.80;65.44;99237.69;10533081;28;20067;-74
2023/07/26 15:08:15;;;;;;;2.88;1.63;;;;;;;20.77;64.86;99232.88;10533346;28;20490;-74
2023/07/26 15:13:18;;;;;;;2.85;1.42;;;;;;;20.77;64.34;99232.88;10514150;28;20051;-76
2023/07/26 15:18:20;;;;;;;3.50;1.70;;;;;;;20.76;64.36;99237.66;10527267;28;20418;-73
2023/07/26 15:23:23;;;;;;;2.03;1.60;;;;;;;20.62;65.22;99243.09;10514397;28;20549;-74
2023/07/26 15:28:26;;;;;;;4.90;1.70;;;;;;;20.57;65.55;99237.06;10532039;28;20372;-74
2023/07/26 15:33:28;;;;;;;3.63;2.10;;;;;;;20.53;65.87;99242.59;10524245;28;20052;-74
2023/07/26 15:38:31;;;;;;;5.05;2.38;;;;;;;20.60;65.46;99250.22;10513858;28;20045;-74
2023/07/26 15:43:34;;;;;;;2.78;1.70;;;;;;;20.56;66.37;99249.41;10531510;28;20044;-74
2023/07/26 15:48:37;;;;;;;1.80;1.40;;;;;;;20.46;67.16;99251.66;10531316;28;20522;-74
2023/07/26 15:53:40;;;;;;;3.83;1.65;;;;;;;20.41;67.73;99257.59;10530596;28;20068;-74
2023/07/26 15:58:42;;;;;;;3.47;2.47;;;;;;;20.33;68.81;99255.88;10530678;28;20040;-74
2023/07/26 16:03:45;;;;;;;6.35;2.92;;;;;;;20.28;67.96;99244.25;10530925;28;20036;-74
2023/07/26 16:08:47;;;;;;;3.53;2.13;;;;;;;20.09;68.54;99250.81;10530547;28;20415;-74
2023/07/26 16:13:50;;;;;;;3.83;1.70;;;;;;;19.92;68.97;99254.97;10533236;28;20503;-74
2023/07/26 16:18:52;;;;;;;3.38;1.77;;;;;;;19.84;69.00;99258.84;10530334;28;20051;-74
2023/07/26 16:23:54;;;;;;;4.90;1.75;;;;;;;19.92;69.20;99259.72;10529883;28;20040;-74
2023/07/26 16:28:57;;;;;;;2.40;1.92;;;;;;;19.85;69.28;99268.78;10529642;28;20498;-74
2023/07/26 16:34:00;;;;;;;1.80;1.70;;;;;;;19.78;69.82;99268.66;10529455;28;20143;-74
2023/07/26 16:39:02;;;;;;;4.40;1.90;;;;;;;19.72;70.50;99268.22;10511289;28;20051;-74
2023/07/26 16:44:05;;;;;;;3.50;1.90;;;;;;;19.65;70.40;99270.91;10510853;28;20048;-74
2023/07/26 16:49:07;;;;;;;2.67;1.98;;;;;;;19.64;70.62;99274.06;10528725;28;20044;-74
2023/07/26 16:54:10;;;;;;;4.13;2.00;;;;;;;19.56;71.51;99273.94;10529054;28;20330;-74
2023/07/26 16:59:12;;;;;;;5.03;2.20;;;;;;;19.61;71.49;99278.38;10546548;28;20037;-74
2023/07/26 17:04:15;;;;;;;3.75;2.40;;;;;;;19.55;71.84;99285.44;10514184;28;20375;-73
2023/07/26 17:09:17;;;;;;;3.88;2.10;;;;;;;19.51;72.07;99290.94;10531648;28;20041;-73
2023/07/26 17:14:19;;;;;;;3.55;2.40;;;;;;;19.46;72.11;99296.03;10527572;28;20048;-73
2023/07/26 17:19:21;;;;;;;5.60;2.55;;;;;;;19.42;71.73;99303.47;10555877;28;20501;-74
2023/07/26 17:24:24;;;;;;;3.75;2.30;;;;;;;19.38;72.35;99305.41;10567464;28;20044;-73
2023/07/26 17:29:26;;;;;;;5.90;3.15;;;;;;;19.41;72.63;99308.25;10563204;28;20052;-73
2023/07/26 17:34:28;;;;;;;3.03;2.35;;;;;;;19.35;73.33;99315.31;10568646;28;20514;-73
2023/07/26 17:39:30;;;;;;;3.17;2.40;;;;;;;19.21;73.81;99321.44;10568383;28;20510;-73
2023/07/26 17:44:33;;;;;;;6.05;2.50;;;;;;;19.23;73.54;99332.19;10541262;28;20033;-73
2023/07/26 17:49:35;;;;;;;4.03;2.50;;;;;;;19.18;74.02;99333.28;10526299;28;20044;-73
2023/07/26 17:54:37;;;;;;;2.85;2.28;;;;;;;19.15;74.22;99344.38;10550696;28;20047;-73
2023/07/26 17:59:40;;;;;;;3.33;2.70;;;;;;;19.13;74.76;99339.16;10568022;28;20052;-73
2023/07/26 18:04:43;;;;;;;4.50;2.63;;;;;;;19.06;75.62;99335.44;10567879;28;20036;-73
2023/07/26 18:09:45;;;;;;;4.78;3.05;;;;;;;19.01;75.50;99341.31;10568066;28;20501;-73
2023/07/26 18:14:48;;;;;;;6.50;3.40;;;;;;;18.96;76.93;99336.88;10568063;28;20044;-73
2023/07/26 18:19:51;;;;;;;4.93;2.90;;;;;;;18.89;77.45;99343.09;10549391;28;20056;-73
2023/07/26 18:24:54;;;;;;;5.30;3.08;;;;;;;18.92;78.56;99342.38;10567246;28;20413;-73
2023/07/26 18:29:57;;;;;;;4.10;2.90;;;;;;;18.76;80.33;99346.41;10567036;28;20544;-73
2023/07/26 18:34:59;;;;;;;4.88;2.90;;;;;;;18.59;81.68;99351.22;10572005;28;20044;-73
2023/07/26 18:40:03;;;;;;;4.55;3.00;;;;;;;18.47;82.02;99348.59;10576091;28;20043;-73
2023/07/26 18:45:06;;;;;;;4.43;2.85;;;;;;;18.44;82.77;99359.63;10557790;28;20036;-73
2023/07/26 18:50:09;;;;;;;4.25;2.80;;;;;;;18.36;82.68;99358.66;10575587;28;20094;-73
2023/07/26 18:55:12;;;;;;;3.80;2.63;;;;;;;18.31;83.31;99367.28;10575468;28;20514;-73
2023/07/26 19:00:14;;;;;;;4.28;2.60;;;;;;;18.22;83.32;99367.50;10575817;28;20040;-73
2023/07/26 19:05:17;;;;;;;4.07;2.80;;;;;;;18.14;83.15;99368.50;10556847;28;20047;-71
2023/07/26 19:10:19;;;;;;;4.38;2.95;;;;;;;18.11;83.62;99368.44;10573689;28;20051;-72
2023/07/26 19:15:21;;;;;;;4.07;2.85;;;;;;;18.06;83.92;99377.84;10574209;28;20044;-72
2023/07/26 19:20:24;;;;;;;5.25;2.97;;;;;;;18.02;83.81;99382.50;10574665;28;20047;-73
2023/07/26 19:25:27;;;;;;;2.95;2.50;;;;;;;18.00;84.01;99391.19;10573873;28;20513;-73
2023/07/26 19:30:29;;;;;;;5.18;3.08;;;;;;;18.01;84.06;99392.00;10555847;28;20545;-73
2023/07/26 19:35:32;;;;;;;4.60;2.58;;;;;;;18.07;84.49;99396.91;10573795;28;20055;-73
2023/07/26 19:40:36;;;;;;;4.57;2.67;;;;;;;18.11;84.44;99401.75;10573325;28;20051;-73
2023/07/26 19:45:39;;;;;;;3.58;2.60;;;;;;;18.06;85.23;99400.84;10572479;28;20043;-73
2023/07/26 19:50:41;;;;;;;4.50;2.15;;;;;;;18.03;85.39;99409.09;10573534;28;20032;-74
2023/07/26 19:55:47;;;;;;;3.92;2.72;;;;;;;18.03;85.00;99400.75;10567077;28;20051;-72
2023/07/26 20:00:49;;;;;;;3.53;2.67;;;;;;;17.96;85.19;99412.50;10555436;28;20035;-71
2023/07/26 20:05:52;;;;;;;5.50;2.83;;;;;;;17.86;85.65;99423.34;10483972;28;20041;-72
2023/07/26 20:10:54;;;;;;;3.50;2.78;;;;;;;17.85;86.31;99424.50;10530097;28;20048;-71
2023/07/26 20:15:57;;;;;;;5.40;2.97;;;;;;;17.87;86.44;99422.97;10530397;28;20059;-72
2023/07/26 20:20:59;;;;;;;4.45;3.00;;;;;;;17.90;86.31;99427.03;10495522;28;20047;-71
2023/07/26 20:26:01;;;;;;;4.32;3.08;;;;;;;17.90;86.79;99429.81;10529733;28;20051;-72
2023/07/26 20:31:03;;;;;;;4.97;3.38;;;;;;;17.85;86.41;99427.28;10529236;28;20048;-71
2023/07/26 20:36:05;;;;;;;6.05;3.00;;;;;;;17.75;87.22;99437.78;10511356;28;20036;-73
2023/07/26 20:41:07;;;;;;;5.85;3.10;;;;;;;17.65;87.18;99435.50;10519030;28;20498;-71
2023/07/26 20:46:10;;;;;;;5.22;3.70;;;;;;;17.51;89.26;99440.66;10510478;28;20040;-73
2023/07/26 20:51:12;;;;;;;5.47;3.78;;;;;;;17.39;89.61;99440.78;10527559;28;20055;-71
2023/07/26 20:56:19;;;;;;;5.72;4.28;;;;;;;17.41;90.19;99436.47;10523533;28;20039;-71
2023/07/26 21:01:21;;;;;;;6.53;3.80;;;;;;;17.42;90.88;99448.38;10526145;28;20052;-71
2023/07/26 21:06:23;;;;;;;9.52;4.38;;;;;;;17.39;91.23;99454.63;10511961;28;20033;-74
2023/07/26 21:11:26;;;;;;;6.85;4.63;;;;;;;17.40;91.10;99470.09;10519676;28;20056;-74
2023/07/26 21:16:28;;;;;;;6.63;4.53;;;;;;;17.44;91.38;99473.78;10527802;28;20037;-75
2023/07/26 21:21:30;;;;;;;6.53;4.93;;;;;;;17.51;91.24;99485.03;10526033;28;20067;-75
2023/07/26 21:26:32;;;;;;;7.70;5.28;;;;;;;17.49;91.45;99484.59;10526724;28;20071;-74
2023/07/26 21:31:34;;;;;;;7.20;4.70;;;;;;;17.41;91.63;99472.53;10526640;28;20053;-74
2023/07/26 21:36:36;;;;;;;6.05;4.57;;;;;;;17.32;92.11;99471.88;10525137;28;20032;-75
2023/07/26 21:41:38;;;;;;;7.60;4.50;;;;;;;17.34;92.16;99464.00;10492392;28;20044;-75
2023/07/26 21:46:41;;;;;;;5.57;3.90;;;;;;;17.27;92.65;99479.66;10514967;28;20060;-74
2023/07/26 21:51:43;;;;;;;6.57;4.05;;;;;;;17.27;92.96;99474.09;10500591;28;20064;-75
2023/07/26 21:56:45;;;;;;;6.32;4.30;;;;;;;17.21;93.31;99476.34;10525160;28;20426;-74
2023/07/26 22:01:48;;;;;;;6.13;4.13;;;;;;;17.14;93.94;99465.84;10525583;28;20052;-74
2023/07/26 22:06:50;;;;;;;7.70;4.40;;;;;;;17.09;94.05;99473.59;10525499;28;20048;-76
2023/07/26 22:11:53;;;;;;;5.75;4.28;;;;;;;16.99;94.81;99479.63;10503557;28;20379;-76
2023/07/26 22:16:55;;;;;;;6.03;4.38;;;;;;;16.91;95.26;99477.84;10525398;28;20037;-76
2023/07/26 22:21:58;;;;;;;7.45;4.50;;;;;;;16.87;95.51;99484.09;10517828;28;20045;-76
2023/07/26 22:27:02;;;;;;;7.22;4.43;;;;;;;16.94;95.30;99493.75;10525077;28;20063;-76
2023/07/26 22:32:13;;;;;;;6.30;4.35;;;;;;;17.00;94.89;99493.13;10524595;28;20048;-76
2023/07/26 22:37:15;;;;;;;7.55;4.40;;;;;;;16.92;94.63;99493.31;10506468;28;20039;-77
2023/07/26 22:42:18;;;;;;;7.22;4.07;;;;;;;16.94;94.86;99500.09;10523455;28;20446;-76
2023/07/26 22:47:21;;;;;;;5.30;3.97;;;;;;;16.92;95.00;99512.69;10505539;28;20415;-75
2023/07/26 22:52:24;;;;;;;6.10;4.72;;;;;;;16.97;94.37;99510.47;10523898;28;20048;-76
2023/07/26 22:57:28;;;;;;;7.72;4.30;;;;;;;17.01;94.60;99522.50;10524818;28;20044;-76
2023/07/26 23:02:31;;;;;;;6.43;3.97;;;;;;;17.05;94.58;99528.13;10515433;28;20071;-75
2023/07/26 23:07:34;;;;;;;5.25;3.90;;;;;;;16.98;94.57;99539.81;10523351;28;20414;-76
2023/07/26 23:12:37;;;;;;;7.35;4.68;;;;;;;16.94;95.20;99560.25;10524440;28;20421;-75
2023/07/26 23:17:39;;;;;;;8.95;4.60;;;;;;;16.97;95.65;99570.63;10524212;28;20056;-76
2023/07/26 23:22:42;;;;;;;6.05;4.07;;;;;;;16.99;95.42;99557.25;10531285;28;20565;-76